createdAt,value
2023-08-25T00:01:50.402Z,98654.97
2023-08-25T00:03:53.347Z,98656.91
2023-08-25T00:05:56.173Z,98660.03
2023-08-25T00:07:59.124Z,98664.75
2023-08-25T00:10:02.030Z,98661.94
2023-08-25T00:12:07.481Z,98663.78
2023-08-25T00:14:10.393Z,98670.03
2023-08-25T00:16:13.584Z,98664.53
2023-08-25T00:18:16.640Z,98671.63
2023-08-25T00:20:20.242Z,98667.69
2023-08-25T00:22:23.246Z,98670.44
2023-08-25T00:24:26.290Z,98673.22
2023-08-25T00:26:29.453Z,98675.56
2023-08-25T00:28:32.331Z,98668.41
2023-08-25T00:30:35.053Z,98655.81
2023-08-25T00:32:39.794Z,98666.47
2023-08-25T00:34:42.589Z,98671.56
2023-08-25T00:36:46.125Z,98669.94
2023-08-25T00:38:48.836Z,98670.72
2023-08-25T00:40:51.600Z,98672.25
2023-08-25T00:42:54.488Z,98669.88
2023-08-25T00:44:57.218Z,98672.25
2023-08-25T00:47:00.954Z,98673.03
2023-08-25T00:49:04.469Z,98673.88
2023-08-25T00:51:10.305Z,98681.31
2023-08-25T00:53:13.779Z,98676.06
2023-08-25T00:55:16.618Z,98676.44
2023-08-25T00:57:20.020Z,98679.63
2023-08-25T00:59:22.953Z,98675.19
2023-08-25T01:01:25.743Z,98670.41
2023-08-25T01:03:28.816Z,98677.16
2023-08-25T01:05:32.336Z,98684.63
2023-08-25T01:07:35.084Z,98682.66
2023-08-25T01:09:37.908Z,98680.53
2023-08-25T01:12:00.730Z,98687.66
2023-08-25T01:14:18.333Z,98688.00
2023-08-25T01:16:30.544Z,98679.22
2023-08-25T01:18:36.041Z,98682.31
2023-08-25T01:20:40.270Z,98677.53
2023-08-25T01:23:21.116Z,98683.81
2023-08-25T01:25:33.073Z,98679.38
2023-08-25T01:27:36.430Z,98669.97
2023-08-25T01:29:45.062Z,98664.47
2023-08-25T01:31:48.159Z,98678.31
2023-08-25T01:33:51.376Z,98669.16
2023-08-25T01:36:15.997Z,98676.91
2023-08-25T01:38:31.400Z,98674.59
2023-08-25T01:40:53.204Z,98679.66
2023-08-25T01:42:57.158Z,98678.06
2023-08-25T01:45:03.638Z,98676.56
2023-08-25T01:47:10.289Z,98673.41
2023-08-25T01:49:15.440Z,98675.38
2023-08-25T01:51:19.077Z,98684.09
2023-08-25T01:53:22.690Z,98673.06
2023-08-25T01:55:25.616Z,98673.41
2023-08-25T01:57:29.204Z,98681.00
2023-08-25T01:59:31.926Z,98677.19
2023-08-25T02:01:34.744Z,98684.63
2023-08-25T02:03:37.838Z,98688.19
2023-08-25T02:05:42.007Z,98685.78
2023-08-25T02:07:44.950Z,98690.06
2023-08-25T02:09:47.687Z,98691.31
2023-08-25T02:11:50.479Z,98685.00
2023-08-25T02:13:53.255Z,98693.59
2023-08-25T02:15:56.292Z,98689.25
2023-08-25T02:17:59.270Z,98689.59
2023-08-25T02:20:02.270Z,98690.41
2023-08-25T02:22:08.540Z,98693.16
2023-08-25T02:24:11.393Z,98693.59
2023-08-25T02:26:14.202Z,98685.63
2023-08-25T02:28:16.914Z,98687.31
2023-08-25T02:30:19.653Z,98691.66
2023-08-25T02:32:22.443Z,98697.16
2023-08-25T02:34:25.163Z,98691.31
2023-08-25T02:36:27.913Z,98696.03
2023-08-25T02:38:30.849Z,98694.50
2023-08-25T02:40:34.435Z,98690.69
2023-08-25T02:42:37.182Z,98689.16
2023-08-25T02:44:40.008Z,98687.22
2023-08-25T02:46:43.978Z,98689.16
2023-08-25T02:48:46.765Z,98691.53
2023-08-25T02:50:49.468Z,98690.75
2023-08-25T02:52:52.367Z,98689.63
2023-08-25T02:54:55.207Z,98702.22
2023-08-25T02:56:58.073Z,98699.91
2023-08-25T02:59:00.865Z,98698.69
2023-08-25T03:01:14.121Z,98693.69
2023-08-25T03:03:17.041Z,98705.50
2023-08-25T03:05:20.108Z,98697.25
2023-08-25T03:07:22.747Z,98700.44
2023-08-25T03:09:25.576Z,98704.97
2023-08-25T03:11:28.268Z,98701.59
2023-08-25T03:13:34.351Z,98706.50
2023-08-25T03:15:37.670Z,98703.00
2023-08-25T03:17:42.615Z,98703.00
2023-08-25T03:19:45.580Z,98705.84
2023-08-25T03:21:48.472Z,98701.56
2023-08-25T03:23:51.172Z,98709.94
2023-08-25T03:25:53.935Z,98714.28
2023-08-25T03:27:56.600Z,98706.72
2023-08-25T03:29:59.418Z,98712.34
2023-08-25T03:32:02.445Z,98711.97
2023-08-25T03:34:05.221Z,98708.69
2023-08-25T03:36:07.949Z,98710.38
2023-08-25T03:38:10.770Z,98718.72
2023-08-25T03:40:13.670Z,98710.09
2023-08-25T03:42:16.549Z,98707.78
2023-08-25T03:44:19.216Z,98710.97
2023-08-25T03:46:21.881Z,98714.63
2023-08-25T03:48:26.264Z,98717.84
2023-08-25T03:50:29.545Z,98712.25
2023-08-25T03:52:32.264Z,98719.06
2023-08-25T03:54:36.534Z,98718.44
2023-08-25T03:56:39.518Z,98715.47
2023-08-25T03:58:42.567Z,98712.38
2023-08-25T04:00:51.970Z,98714.41
2023-08-25T04:02:54.799Z,98709.31
2023-08-25T04:04:57.610Z,98710.22
2023-08-25T04:07:00.361Z,98712.66
2023-08-25T04:09:03.115Z,98706.41
2023-08-25T04:11:05.852Z,98715.88
2023-08-25T04:13:09.396Z,98706.34
2023-08-25T04:15:12.486Z,98715.28
2023-08-25T04:17:15.496Z,98713.75
2023-08-25T04:19:18.485Z,98715.09
2023-08-25T04:21:21.484Z,98713.03
2023-08-25T04:23:27.468Z,98718.19
2023-08-25T04:25:31.271Z,98711.94
2023-08-25T04:27:34.107Z,98714.75
2023-08-25T04:29:36.873Z,98708.94
2023-08-25T04:31:39.589Z,98722.31
2023-08-25T04:33:43.126Z,98717.09
2023-08-25T04:35:46.107Z,98719.28
2023-08-25T04:37:49.148Z,98716.56
2023-08-25T04:39:53.692Z,98723.56
2023-08-25T04:41:56.372Z,98719.19
2023-08-25T04:43:59.177Z,98717.88
2023-08-25T04:46:01.967Z,98718.06
2023-08-25T04:48:05.314Z,98714.72
2023-08-25T04:50:09.572Z,98715.28
2023-08-25T04:52:12.285Z,98717.34
2023-08-25T04:54:15.407Z,98723.72
2023-08-25T04:56:18.996Z,98719.22
2023-08-25T04:58:23.075Z,98721.31
2023-08-25T05:00:26.991Z,98721.75
2023-08-25T05:02:29.701Z,98721.66
2023-08-25T05:04:32.472Z,98720.69
2023-08-25T05:06:35.274Z,98713.50
2023-08-25T05:08:38.041Z,98718.13
2023-08-25T05:10:41.118Z,98723.94
2023-08-25T05:12:43.908Z,98717.75
2023-08-25T05:14:46.577Z,98717.91
2023-08-25T05:16:49.726Z,98720.44
2023-08-25T05:18:52.433Z,98726.53
2023-08-25T05:21:01.785Z,98732.31
2023-08-25T05:23:04.887Z,98721.19
2023-08-25T05:25:08.043Z,98725.50
2023-08-25T05:27:10.780Z,98728.97
2023-08-25T05:29:13.484Z,98725.56
2023-08-25T05:31:16.113Z,98722.97
2023-08-25T05:33:19.009Z,98725.19
2023-08-25T05:35:21.758Z,98728.47
2023-08-25T05:37:24.557Z,98727.91
2023-08-25T05:39:27.424Z,98724.47
2023-08-25T05:41:30.392Z,98719.75
2023-08-25T05:43:33.120Z,98721.56
2023-08-25T05:45:36.162Z,98720.72
2023-08-25T05:47:39.090Z,98715.31
2023-08-25T05:49:41.893Z,98724.84
2023-08-25T05:51:46.214Z,98720.19
2023-08-25T05:53:49.268Z,98719.50
2023-08-25T05:55:52.192Z,98726.75
2023-08-25T05:57:55.342Z,98717.28
2023-08-25T05:59:59.620Z,98720.06
2023-08-25T06:02:02.769Z,98722.94
2023-08-25T06:04:05.977Z,98719.72
2023-08-25T06:06:08.808Z,98724.78
2023-08-25T06:08:12.772Z,98727.81
2023-08-25T06:10:15.835Z,98717.09
2023-08-25T06:12:18.745Z,98724.50
2023-08-25T06:14:21.796Z,98727.63
2023-08-25T06:16:24.792Z,98720.88
2023-08-25T06:18:28.317Z,98717.41
2023-08-25T06:20:32.086Z,98721.88
2023-08-25T06:22:34.939Z,98713.53
2023-08-25T06:24:38.728Z,98701.16
2023-08-25T06:26:44.259Z,98711.53
2023-08-25T06:28:47.316Z,98710.00
2023-08-25T06:30:55.866Z,98709.25
2023-08-25T06:33:05.118Z,98707.72
2023-08-25T06:35:09.435Z,98709.25
2023-08-25T06:37:12.794Z,98706.94
2023-08-25T06:39:16.344Z,98710.13
2023-08-25T06:41:19.820Z,98713.75
2023-08-25T06:43:22.583Z,98701.78
2023-08-25T06:45:25.247Z,98699.97
2023-08-25T06:47:28.717Z,98699.56
2023-08-25T06:49:31.523Z,98705.66
2023-08-25T06:51:34.432Z,98708.97
2023-08-25T06:53:37.365Z,98690.59
2023-08-25T06:55:40.164Z,98700.13
2023-08-25T06:57:42.956Z,98703.31
2023-08-25T06:59:46.107Z,98701.06
2023-08-25T07:01:48.920Z,98709.91
2023-08-25T07:03:51.786Z,98703.56
2023-08-25T07:06:01.209Z,98697.19
2023-08-25T07:08:04.522Z,98702.84
2023-08-25T07:10:08.488Z,98698.56
2023-08-25T07:12:11.356Z,98695.03
2023-08-25T07:14:14.435Z,98697.91
2023-08-25T07:16:17.208Z,98699.53
2023-08-25T07:18:22.847Z,98695.13
2023-08-25T07:20:25.621Z,98703.84
2023-08-25T07:22:28.454Z,98701.34
2023-08-25T07:24:31.153Z,98702.06
2023-08-25T07:26:34.006Z,98702.41
2023-08-25T07:28:36.757Z,98705.16
2023-08-25T07:30:40.466Z,98708.69
2023-08-25T07:32:43.443Z,98705.03
2023-08-25T07:34:46.901Z,98697.00
2023-08-25T07:36:50.245Z,98697.88
2023-08-25T07:38:53.088Z,98701.47
2023-08-25T07:40:56.500Z,98704.34
2023-08-25T07:43:03.239Z,98697.25
2023-08-25T07:45:06.997Z,98690.47
2023-08-25T07:47:09.696Z,98694.34
2023-08-25T07:49:12.793Z,98696.81
2023-08-25T07:51:18.979Z,98700.03
2023-08-25T07:53:28.381Z,98699.69
2023-08-25T07:55:32.382Z,98689.03
2023-08-25T07:57:36.838Z,98687.97
2023-08-25T07:59:39.606Z,98690.75
2023-08-25T08:01:42.471Z,98690.84
2023-08-25T08:03:45.237Z,98695.19
2023-08-25T08:05:48.109Z,98695.53
2023-08-25T08:07:51.156Z,98691.59
2023-08-25T08:09:54.336Z,98689.88
2023-08-25T08:12:00.826Z,98706.53
2023-08-25T08:14:07.130Z,98704.81
2023-08-25T08:16:10.361Z,98700.66
2023-08-25T08:18:13.380Z,98710.53
2023-08-25T08:20:16.228Z,98704.94
2023-08-25T08:22:19.344Z,98703.28
2023-08-25T08:24:32.016Z,98699.66
2023-08-25T08:26:42.717Z,98705.69
2023-08-25T08:28:45.580Z,98702.63
2023-08-25T08:30:49.702Z,98700.31
2023-08-25T08:32:52.813Z,98702.00
2023-08-25T08:34:55.668Z,98703.22
2023-08-25T08:36:59.134Z,98705.25
2023-08-25T08:39:04.674Z,98698.56
2023-08-25T08:41:08.286Z,98693.88
2023-08-25T08:43:16.125Z,98695.56
2023-08-25T08:45:25.758Z,98689.28
2023-08-25T08:47:29.032Z,98689.34
2023-08-25T08:49:35.588Z,98702.06
2023-08-25T08:51:40.684Z,98694.03
2023-08-25T08:53:44.279Z,98701.97
2023-08-25T08:55:49.387Z,98697.53
2023-08-25T08:57:52.737Z,98689.66
2023-08-25T09:00:01.291Z,98684.56
2023-08-25T09:02:06.020Z,98682.16
2023-08-25T09:04:10.462Z,98684.97
2023-08-25T09:06:13.784Z,98683.75
2023-08-25T09:08:18.240Z,98685.75
2023-08-25T09:10:26.537Z,98690.03
2023-08-25T09:12:32.905Z,98686.41
2023-08-25T09:14:44.036Z,98690.69
2023-08-25T09:16:47.907Z,98693.38
2023-08-25T09:18:54.396Z,98684.31
2023-08-25T09:20:58.703Z,98686.84
2023-08-25T09:23:05.355Z,98685.34
2023-08-25T09:25:10.001Z,98692.50
2023-08-25T09:27:26.968Z,98688.22
2023-08-25T09:29:58.009Z,98692.16
2023-08-25T09:32:04.756Z,98688.97
2023-08-25T09:34:09.671Z,98687.34
2023-08-25T09:36:15.431Z,98683.38
2023-08-25T09:38:24.015Z,98686.59
2023-08-25T09:40:31.930Z,98701.69
2023-08-25T09:42:41.756Z,98687.41
2023-08-25T09:44:47.111Z,98687.75
2023-08-25T09:46:54.184Z,98692.53
2023-08-25T09:49:04.825Z,98683.00
2023-08-25T09:51:08.080Z,98680.63
2023-08-25T09:53:14.403Z,98690.56
2023-08-25T09:55:19.357Z,98693.28
2023-08-25T09:57:25.337Z,98687.72
2023-08-25T09:59:28.659Z,98688.13
2023-08-25T10:01:34.171Z,98690.06
2023-08-25T10:03:37.616Z,98688.09
2023-08-25T10:05:42.730Z,98690.91
2023-08-25T10:07:46.963Z,98684.19
2023-08-25T10:09:50.347Z,98678.69
2023-08-25T10:11:54.799Z,98694.19
2023-08-25T10:13:59.113Z,98682.22
2023-08-25T10:16:05.675Z,98693.75
2023-08-25T10:18:10.235Z,98697.34
2023-08-25T10:20:16.676Z,98692.16
2023-08-25T10:22:21.923Z,98698.53
2023-08-25T10:24:27.432Z,98690.16
2023-08-25T10:26:32.200Z,98696.91
2023-08-25T10:28:36.310Z,98692.53
2023-08-25T10:30:42.504Z,98692.19
2023-08-25T10:32:57.709Z,98698.13
2023-08-25T10:35:04.470Z,98710.06
2023-08-25T10:37:27.861Z,98703.28
2023-08-25T10:39:52.393Z,98702.06
2023-08-25T10:42:00.271Z,98693.75
2023-08-25T10:44:03.413Z,98688.97
2023-08-25T10:46:12.877Z,98709.28
2023-08-25T10:48:30.593Z,98695.38
2023-08-25T10:50:44.397Z,98706.84
2023-08-25T10:52:54.316Z,98696.41
2023-08-25T10:54:57.584Z,98707.13
2023-08-25T10:57:19.435Z,98711.09
2023-08-25T10:59:23.685Z,98701.16
2023-08-25T11:01:56.009Z,98698.38
2023-08-25T11:04:23.958Z,98699.94
2023-08-25T11:06:43.808Z,98699.94
2023-08-25T11:08:57.569Z,98700.38
2023-08-25T11:11:19.019Z,98698.06
2023-08-25T11:13:22.268Z,98700.88
2023-08-25T11:15:25.299Z,98687.41
2023-08-25T11:17:28.851Z,98694.94
2023-08-25T11:19:33.909Z,98708.06
2023-08-25T11:21:39.524Z,98693.69
2023-08-25T11:23:45.087Z,98699.63
2023-08-25T11:25:48.863Z,98700.81
2023-08-25T11:27:52.567Z,98704.78
2023-08-25T11:30:11.421Z,98704.00
2023-08-25T11:32:17.663Z,98697.66
2023-08-25T11:34:23.753Z,98707.22
2023-08-25T11:36:27.303Z,98698.88
2023-08-25T11:38:33.429Z,98695.69
2023-08-25T11:40:40.615Z,98695.72
2023-08-25T11:42:43.674Z,98698.84
2023-08-25T11:44:46.740Z,98694.44
2023-08-25T11:46:51.771Z,98689.28
2023-08-25T11:48:59.643Z,98690.47
2023-08-25T11:51:04.368Z,98694.41
2023-08-25T11:53:08.636Z,98692.06
2023-08-25T11:55:17.831Z,98688.09
2023-08-25T11:57:20.976Z,98684.53
2023-08-25T11:59:30.524Z,98685.69
2023-08-25T12:01:37.295Z,98691.47
2023-08-25T12:03:44.124Z,98696.66
2023-08-25T12:05:48.580Z,98687.66
2023-08-25T12:07:54.786Z,98673.00
2023-08-25T12:10:02.291Z,98686.59
2023-08-25T12:12:10.230Z,98681.81
2023-08-25T12:14:31.239Z,98691.78
2023-08-25T12:16:34.453Z,98696.13
2023-08-25T12:18:39.597Z,98692.97
2023-08-25T12:20:45.979Z,98682.25
2023-08-25T12:22:59.215Z,98700.09
2023-08-25T12:25:02.398Z,98700.06
2023-08-25T12:27:07.409Z,98697.66
2023-08-25T12:29:13.516Z,98691.66
2023-08-25T12:31:16.383Z,98693.63
2023-08-25T12:33:19.170Z,98685.59
2023-08-25T12:35:23.591Z,98687.56
2023-08-25T12:37:28.404Z,98696.31
2023-08-25T12:39:31.330Z,98698.69
2023-08-25T12:41:34.222Z,98692.78
2023-08-25T12:43:37.300Z,98701.16
2023-08-25T12:45:40.988Z,98697.16
2023-08-25T12:47:44.546Z,98700.78
2023-08-25T12:49:47.987Z,98707.97
2023-08-25T12:51:52.446Z,98700.81
2023-08-25T12:53:58.702Z,98699.69
2023-08-25T12:56:01.412Z,98699.28
2023-08-25T12:58:04.647Z,98700.50
2023-08-25T13:00:09.403Z,98702.50
2023-08-25T13:02:12.371Z,98710.84
2023-08-25T13:04:15.154Z,98712.34
2023-08-25T13:06:17.968Z,98704.63
2023-08-25T13:08:21.456Z,98711.66
2023-08-25T13:10:24.603Z,98705.03
2023-08-25T13:12:27.292Z,98721.34
2023-08-25T13:14:30.273Z,98710.63
2023-08-25T13:16:33.129Z,98720.72
2023-08-25T13:18:36.273Z,98729.50
2023-08-25T13:20:39.078Z,98725.56
2023-08-25T13:22:42.075Z,98727.19
2023-08-25T13:24:44.817Z,98726.34
2023-08-25T13:26:47.685Z,98727.09
2023-08-25T13:28:51.402Z,98725.84
2023-08-25T13:30:54.232Z,98727.03
2023-08-25T13:32:57.304Z,98736.91
2023-08-25T13:35:00.215Z,98732.16
2023-08-25T13:37:04.973Z,98738.06
2023-08-25T13:39:10.666Z,98743.63
2023-08-25T13:41:13.282Z,98746.00
2023-08-25T13:43:16.093Z,98746.81
2023-08-25T13:45:19.049Z,98750.88
2023-08-25T13:47:21.793Z,98737.31
2023-08-25T13:49:24.786Z,98750.00
2023-08-25T13:51:27.665Z,98747.28
2023-08-25T13:53:31.134Z,98749.63
2023-08-25T13:55:34.339Z,98736.06
2023-08-25T13:57:49.744Z,98754.59
2023-08-25T13:59:52.811Z,98746.88
2023-08-25T14:01:55.690Z,98759.09
2023-08-25T14:03:58.827Z,98752.22
2023-08-25T14:06:05.502Z,98752.91
2023-08-25T14:08:11.070Z,98759.63
2023-08-25T14:10:13.872Z,98754.81
2023-08-25T14:12:17.822Z,98748.50
2023-08-25T14:14:20.596Z,98749.16
2023-08-25T14:16:23.496Z,98740.78
2023-08-25T14:18:28.129Z,98749.31
2023-08-25T14:20:32.419Z,98741.03
2023-08-25T14:22:35.234Z,98745.38
2023-08-25T14:24:37.974Z,98745.34
2023-08-25T14:26:41.079Z,98745.75
2023-08-25T14:28:43.971Z,98748.66
2023-08-25T14:30:46.732Z,98747.44
2023-08-25T14:32:49.667Z,98750.63
2023-08-25T14:34:52.436Z,98755.72
2023-08-25T14:36:55.130Z,98751.63
2023-08-25T14:38:58.459Z,98758.25
2023-08-25T14:41:01.414Z,98758.44
2023-08-25T14:43:04.356Z,98754.75
2023-08-25T14:45:07.956Z,98759.81
2023-08-25T14:47:10.729Z,98754.22
2023-08-25T14:49:14.052Z,98759.31
2023-08-25T14:51:17.123Z,98758.81
2023-08-25T14:53:19.926Z,98755.84
2023-08-25T14:55:22.669Z,98758.75
2023-08-25T14:57:25.426Z,98759.91
2023-08-25T14:59:28.194Z,98751.91
2023-08-25T15:01:31.323Z,98759.66
2023-08-25T15:03:34.137Z,98756.66
2023-08-25T15:05:36.964Z,98750.84
2023-08-25T15:07:39.798Z,98751.66
2023-08-25T15:09:42.513Z,98748.00
2023-08-25T15:11:45.301Z,98764.97
2023-08-25T15:13:48.337Z,98757.28
2023-08-25T15:15:51.160Z,98754.78
2023-08-25T15:17:54.188Z,98743.59
2023-08-25T15:19:57.411Z,98760.97
2023-08-25T15:22:00.202Z,98758.44
2023-08-25T15:24:03.138Z,98752.38
2023-08-25T15:26:06.417Z,98761.84
2023-08-25T15:28:09.166Z,98754.31
2023-08-25T15:30:12.822Z,98764.50
2023-08-25T15:32:15.574Z,98756.50
2023-08-25T15:34:18.499Z,98759.56
2023-08-25T15:36:22.573Z,98757.84
2023-08-25T15:38:25.458Z,98768.41
2023-08-25T15:40:33.739Z,98759.22
2023-08-25T15:42:36.520Z,98769.41
2023-08-25T15:44:41.387Z,98760.19
2023-08-25T15:46:44.639Z,98770.47
2023-08-25T15:48:47.333Z,98757.25
2023-08-25T15:50:50.160Z,98768.63
2023-08-25T15:52:55.164Z,98774.16
2023-08-25T15:54:58.189Z,98765.31
2023-08-25T15:57:02.287Z,98768.31
2023-08-25T15:59:05.037Z,98769.81
2023-08-25T16:01:11.949Z,98772.53
2023-08-25T16:03:15.015Z,98768.88
2023-08-25T16:05:18.164Z,98776.31
2023-08-25T16:07:21.080Z,98772.66
2023-08-25T16:09:23.845Z,98778.78
2023-08-25T16:11:26.830Z,98791.78
2023-08-25T16:13:30.654Z,98788.53
2023-08-25T16:15:38.578Z,98791.19
2023-08-25T16:17:42.649Z,98792.25
2023-08-25T16:19:45.753Z,98787.03
2023-08-25T16:21:48.432Z,98788.91
2023-08-25T16:23:51.206Z,98787.19
2023-08-25T16:25:54.091Z,98788.72
2023-08-25T16:27:56.819Z,98786.25
2023-08-25T16:29:59.547Z,98800.81
2023-08-25T16:32:04.598Z,98788.91
2023-08-25T16:34:09.299Z,98790.34
2023-08-25T16:36:14.184Z,98797.41
2023-08-25T16:38:17.214Z,98791.84
2023-08-25T16:40:20.896Z,98788.53
2023-08-25T16:42:23.629Z,98794.34
2023-08-25T16:44:26.482Z,98793.84
2023-08-25T16:46:29.286Z,98795.31
2023-08-25T16:48:32.410Z,98782.97
2023-08-25T16:50:36.307Z,98793.50
2023-08-25T16:52:39.072Z,98789.16
2023-08-25T16:54:41.837Z,98793.78
2023-08-25T16:56:44.977Z,98792.91
2023-08-25T16:58:49.067Z,98794.00
2023-08-25T17:00:52.287Z,98794.28
2023-08-25T17:02:57.318Z,98799.03
2023-08-25T17:05:00.483Z,98809.63
2023-08-25T17:07:03.333Z,98805.63
2023-08-25T17:09:06.220Z,98808.31
2023-08-25T17:11:09.114Z,98804.69
2023-08-25T17:13:11.991Z,98812.09
2023-08-25T17:15:16.727Z,98796.59
2023-08-25T17:17:19.671Z,98813.97
2023-08-25T17:19:22.430Z,98813.88
2023-08-25T17:21:25.189Z,98815.47
2023-08-25T17:23:28.281Z,98815.03
2023-08-25T17:25:31.761Z,98813.00
2023-08-25T17:27:34.954Z,98805.00
2023-08-25T17:29:37.741Z,98813.63
2023-08-25T17:31:40.451Z,98811.59
2023-08-25T17:33:43.511Z,98811.16
2023-08-25T17:35:46.738Z,98809.13
2023-08-25T17:37:49.504Z,98815.34
2023-08-25T17:39:52.482Z,98814.56
2023-08-25T17:41:55.537Z,98808.25
2023-08-25T17:43:58.378Z,98817.25
2023-08-25T17:46:02.081Z,98814.94
2023-08-25T17:48:06.299Z,98817.69
2023-08-25T17:50:09.263Z,98796.69
2023-08-25T17:52:12.131Z,98808.25
2023-08-25T17:54:15.130Z,98813.41
2023-08-25T17:56:17.974Z,98807.44
2023-08-25T17:58:20.634Z,98817.25
2023-08-25T18:00:23.549Z,98823.00
2023-08-25T18:02:26.533Z,98814.66
2023-08-25T18:04:29.314Z,98820.09
2023-08-25T18:06:32.112Z,98823.50
2023-08-25T18:08:37.227Z,98821.31
2023-08-25T18:10:40.561Z,98814.13
2023-08-25T18:12:43.302Z,98816.31
2023-08-25T18:14:46.024Z,98827.28
2023-08-25T18:16:49.274Z,98824.81
2023-08-25T18:18:52.142Z,98823.56
2023-08-25T18:21:02.841Z,98822.66
2023-08-25T18:23:06.352Z,98822.47
2023-08-25T18:25:09.293Z,98820.66
2023-08-25T18:27:12.045Z,98824.59
2023-08-25T18:29:14.894Z,98819.81
2023-08-25T18:31:17.684Z,98824.03
2023-08-25T18:33:20.422Z,98816.16
2023-08-25T18:35:23.912Z,98824.41
2023-08-25T18:37:26.606Z,98815.34
2023-08-25T18:39:29.566Z,98816.94
2023-08-25T18:41:32.489Z,98811.75
2023-08-25T18:43:36.156Z,98822.78
2023-08-25T18:45:38.842Z,98816.16
2023-08-25T18:47:41.674Z,98822.78
2023-08-25T18:49:44.401Z,98823.97
2023-08-25T18:51:47.132Z,98825.47
2023-08-25T18:53:49.965Z,98818.72
2023-08-25T18:55:52.836Z,98820.22
2023-08-25T18:57:55.628Z,98815.84
2023-08-25T18:59:58.463Z,98815.31
2023-08-25T19:02:01.201Z,98822.06
2023-08-25T19:04:04.112Z,98816.91
2023-08-25T19:06:07.409Z,98813.34
2023-08-25T19:08:10.259Z,98820.13
2023-08-25T19:10:13.122Z,98822.59
2023-08-25T19:12:15.854Z,98823.06
2023-08-25T19:14:19.175Z,98825.34
2023-08-25T19:16:21.975Z,98823.78
2023-08-25T19:18:25.038Z,98816.75
2023-08-25T19:20:27.958Z,98823.97
2023-08-25T19:22:30.734Z,98827.63
2023-08-25T19:24:34.316Z,98825.66
2023-08-25T19:26:37.299Z,98823.25
2023-08-25T19:28:42.818Z,98827.63
2023-08-25T19:30:46.516Z,98827.97
2023-08-25T19:32:49.295Z,98832.69
2023-08-25T19:34:52.094Z,98821.47
2023-08-25T19:36:55.332Z,98834.66
2023-08-25T19:38:58.061Z,98827.16
2023-08-25T19:41:08.564Z,98839.78
2023-08-25T19:43:11.522Z,98829.94
2023-08-25T19:45:15.740Z,98834.66
2023-08-25T19:47:18.882Z,98831.97
2023-08-25T19:49:21.634Z,98839.09
2023-08-25T19:51:24.440Z,98832.41
2023-08-25T19:53:27.378Z,98835.97
2023-08-25T19:55:30.563Z,98839.53
2023-08-25T19:57:33.795Z,98837.22
2023-08-25T19:59:36.620Z,98837.66
2023-08-25T20:01:39.346Z,98840.09
2023-08-25T20:03:42.448Z,98841.66
2023-08-25T20:06:08.413Z,98840.16
2023-08-25T20:08:11.144Z,98837.78
2023-08-25T20:10:14.018Z,98840.88
2023-08-25T20:12:16.764Z,98841.22
2023-08-25T20:14:19.520Z,98843.28
2023-08-25T20:16:24.348Z,98843.28
2023-08-25T20:18:27.412Z,98846.50
2023-08-25T20:20:30.311Z,98843.38
2023-08-25T20:22:33.000Z,98845.31
2023-08-25T20:24:35.658Z,98839.47
2023-08-25T20:26:38.717Z,98838.31
2023-08-25T20:28:41.860Z,98843.47
2023-08-25T20:30:48.412Z,98841.84
2023-08-25T20:32:51.278Z,98843.03
2023-08-25T20:34:54.040Z,98842.22
2023-08-25T20:36:56.970Z,98846.91
2023-08-25T20:38:59.679Z,98845.31
2023-08-25T20:41:04.580Z,98848.09
2023-08-25T20:43:07.895Z,98845.66
2023-08-25T20:45:10.789Z,98851.19
2023-08-25T20:47:13.454Z,98862.22
2023-08-25T20:49:16.124Z,98853.53
2023-08-25T20:51:27.803Z,98847.19
2023-08-25T20:53:30.908Z,98858.59
2023-08-25T20:55:33.790Z,98860.88
2023-08-25T20:57:36.755Z,98858.81
2023-08-25T20:59:39.520Z,98850.91
2023-08-25T21:01:42.599Z,98860.25
2023-08-25T21:03:45.701Z,98855.78
2023-08-25T21:05:48.466Z,98853.38
2023-08-25T21:07:51.538Z,98858.44
2023-08-25T21:09:54.266Z,98849.72
2023-08-25T21:11:57.094Z,98862.34
2023-08-25T21:13:59.841Z,98848.91
2023-08-25T21:16:03.281Z,98852.03
2023-08-25T21:18:06.234Z,98852.38
2023-08-25T21:20:09.644Z,98849.97
2023-08-25T21:22:12.440Z,98855.59
2023-08-25T21:24:15.215Z,98859.16
2023-08-25T21:26:19.735Z,98849.97
2023-08-25T21:28:22.756Z,98855.84
2023-08-25T21:30:25.611Z,98852.66
2023-08-25T21:32:28.378Z,98847.47
2023-08-25T21:34:31.265Z,98850.16
2023-08-25T21:36:34.999Z,98850.50
2023-08-25T21:38:37.769Z,98858.75
2023-08-25T21:40:40.550Z,98856.78
2023-08-25T21:42:43.362Z,98862.31
2023-08-25T21:44:46.069Z,98863.81
2023-08-25T21:46:48.801Z,98857.06
2023-08-25T21:48:52.354Z,98856.13
2023-08-25T21:50:55.074Z,98860.84
2023-08-25T21:52:57.931Z,98863.53
2023-08-25T21:55:00.740Z,98863.53
2023-08-25T21:57:03.730Z,98867.53
2023-08-25T21:59:06.867Z,98862.69
2023-08-25T22:01:09.743Z,98869.81
2023-08-25T22:03:12.768Z,98867.06
2023-08-25T22:05:15.651Z,98865.44
2023-08-25T22:07:18.498Z,98865.00
2023-08-25T22:09:21.298Z,98864.91
2023-08-25T22:11:24.153Z,98876.28
2023-08-25T22:13:26.898Z,98866.75
2023-08-25T22:15:29.775Z,98866.28
2023-08-25T22:17:32.494Z,98861.03
2023-08-25T22:19:35.333Z,98874.34
2023-08-25T22:21:38.235Z,98872.31
2023-08-25T22:23:40.979Z,98872.31
2023-08-25T22:25:43.838Z,98871.50
2023-08-25T22:27:46.634Z,98869.53
2023-08-25T22:29:49.404Z,98872.63
2023-08-25T22:31:57.456Z,98879.84
2023-08-25T22:36:06.161Z,98869.22
2023-08-25T22:38:09.041Z,98872.75
2023-08-25T22:40:11.893Z,98870.00
2023-08-25T22:42:14.751Z,98880.31
2023-08-25T22:44:17.531Z,98880.66
2023-08-25T22:46:20.338Z,98869.22
2023-08-25T22:48:23.291Z,98871.03
2023-08-25T22:50:25.992Z,98869.34
2023-08-25T22:52:28.771Z,98872.88
2023-08-25T22:54:31.830Z,98880.22
2023-08-25T22:56:34.618Z,98879.91
2023-08-25T22:58:37.443Z,98879.13
2023-08-25T23:00:40.251Z,98872.91
2023-08-25T23:02:44.898Z,98872.78
2023-08-25T23:04:49.346Z,98866.16
2023-08-25T23:06:52.168Z,98876.25
2023-08-25T23:08:54.867Z,98862.38
2023-08-25T23:10:57.630Z,98864.66
2023-08-25T23:13:00.300Z,98863.19
2023-08-25T23:15:02.992Z,98861.31
2023-08-25T23:17:07.412Z,98870.03
2023-08-25T23:19:10.249Z,98872.25
2023-08-25T23:21:13.245Z,98859.34
2023-08-25T23:23:16.540Z,98872.69
2023-08-25T23:25:19.258Z,98879.56
2023-08-25T23:27:22.331Z,98865.13
2023-08-25T23:29:25.099Z,98870.84
2023-08-25T23:31:27.805Z,98870.63
2023-08-25T23:33:31.156Z,98877.16
2023-08-25T23:35:35.837Z,98870.03
2023-08-25T23:37:38.516Z,98870.84
2023-08-25T23:39:41.328Z,98874.75
2023-08-25T23:41:44.031Z,98872.91
2023-08-25T23:43:46.852Z,98875.44
2023-08-25T23:45:50.345Z,98876.22
2023-08-25T23:47:53.190Z,98888.63
2023-08-25T23:49:55.992Z,98885.06
2023-08-25T23:51:59.677Z,98884.28
2023-08-25T23:54:02.415Z,98879.91
2023-08-25T23:56:05.494Z,98878.88
2023-08-25T23:58:08.246Z,98873.84
